createdAt,value
2024-04-30T03:45:45.451Z,98.00
2024-04-30T03:48:12.592Z,98.10
2024-04-30T03:50:39.694Z,98.10
2024-04-30T03:53:06.760Z,98.20
2024-04-30T03:55:34.061Z,98.30
2024-04-30T03:58:01.614Z,98.40
2024-04-30T04:00:28.828Z,98.50
2024-04-30T04:02:55.967Z,98.40
2024-04-30T04:05:23.123Z,98.20
2024-04-30T04:07:51.357Z,98.30
2024-04-30T04:10:18.490Z,98.30
2024-04-30T04:13:04.244Z,98.30
2024-04-30T04:15:31.312Z,98.50
2024-04-30T04:17:58.475Z,98.70
2024-04-30T04:20:25.571Z,98.70
2024-04-30T04:22:53.777Z,98.80
2024-04-30T04:25:20.953Z,98.80
2024-04-30T04:27:48.028Z,98.90
2024-04-30T04:30:15.298Z,98.90
2024-04-30T04:32:42.520Z,98.90
2024-04-30T04:35:09.640Z,98.90
2024-04-30T04:37:36.728Z,98.90
2024-04-30T04:40:04.203Z,98.90
2024-04-30T04:42:31.341Z,98.90
2024-04-30T04:44:58.454Z,99.00
2024-04-30T04:47:25.581Z,99.00
2024-04-30T04:49:52.776Z,98.90
2024-04-30T04:52:19.964Z,98.70
2024-04-30T04:54:47.087Z,98.70
2024-04-30T04:57:14.336Z,98.60
2024-04-30T04:59:41.393Z,98.70
2024-04-30T05:02:08.633Z,98.80
2024-04-30T05:04:35.768Z,98.70
2024-04-30T05:07:03.087Z,98.70
2024-04-30T05:09:30.252Z,98.70
2024-04-30T05:11:57.340Z,98.70
2024-04-30T05:14:24.399Z,98.70
2024-04-30T05:16:51.562Z,98.90
2024-04-30T05:19:18.720Z,99.00
2024-04-30T05:21:45.861Z,99.10
2024-04-30T05:24:12.959Z,99.20
2024-04-30T05:26:40.027Z,99.10
2024-04-30T05:29:07.082Z,99.40
2024-04-30T05:31:38.280Z,99.30
2024-04-30T05:34:08.167Z,99.50
2024-04-30T05:36:35.240Z,99.50
2024-04-30T05:39:03.382Z,99.50
2024-04-30T05:41:30.978Z,99.50
2024-04-30T05:43:58.069Z,99.40
2024-04-30T05:46:25.275Z,99.80
2024-04-30T05:48:52.664Z,99.90
2024-04-30T05:51:19.783Z,99.90
2024-04-30T05:53:46.865Z,99.90
2024-04-30T05:56:13.949Z,99.90
2024-04-30T05:58:41.038Z,99.90
2024-04-30T06:01:08.272Z,99.90
2024-04-30T06:03:35.486Z,99.90
2024-04-30T06:06:02.618Z,99.90
2024-04-30T06:08:29.696Z,99.90
2024-04-30T06:10:56.818Z,99.90
2024-04-30T06:13:24.064Z,99.90
2024-04-30T06:15:51.199Z,99.90
2024-04-30T06:18:18.366Z,99.90
2024-04-30T06:20:45.514Z,99.90
2024-04-30T06:23:12.597Z,99.90
2024-04-30T06:25:39.680Z,99.90
2024-04-30T06:28:06.846Z,99.90
2024-04-30T06:30:33.909Z,99.90
2024-04-30T06:33:01.155Z,99.90
2024-04-30T06:35:28.288Z,99.60
2024-04-30T06:37:58.055Z,99.30
2024-04-30T06:40:27.328Z,99.40
2024-04-30T06:42:54.890Z,99.50
2024-04-30T06:45:24.364Z,99.10
2024-04-30T06:47:51.633Z,98.80
2024-04-30T06:50:18.770Z,98.90
2024-04-30T06:52:45.913Z,98.70
2024-04-30T06:55:13.199Z,98.50
2024-04-30T06:57:40.296Z,98.30
2024-04-30T07:00:07.633Z,98.30
2024-04-30T07:02:34.761Z,98.30
2024-04-30T07:05:02.113Z,98.30
2024-04-30T07:07:30.909Z,98.10
2024-04-30T07:09:58.058Z,98.40
2024-04-30T07:12:25.171Z,98.30
2024-04-30T07:14:52.264Z,98.20
2024-04-30T07:17:19.373Z,98.20
2024-04-30T07:19:48.991Z,98.50
2024-04-30T07:22:17.731Z,98.60
2024-04-30T07:24:44.855Z,98.50
2024-04-30T07:27:11.932Z,98.50
2024-04-30T07:29:38.991Z,98.30
2024-04-30T07:32:06.267Z,98.40
2024-04-30T07:34:33.697Z,98.50
2024-04-30T07:37:00.812Z,98.70
2024-04-30T07:39:27.881Z,98.80
2024-04-30T07:41:54.981Z,98.90
2024-04-30T07:44:22.054Z,98.80
2024-04-30T07:46:49.104Z,98.50
2024-04-30T07:49:16.248Z,98.20
2024-04-30T07:51:43.375Z,98.20
2024-04-30T07:54:10.453Z,98.50
2024-04-30T07:56:37.499Z,98.40
2024-04-30T07:59:04.578Z,98.30
2024-04-30T08:01:31.679Z,97.40
2024-04-30T08:03:59.032Z,97.40
2024-04-30T08:06:26.911Z,97.70
2024-04-30T08:08:54.070Z,97.60
2024-04-30T08:11:21.460Z,97.60
2024-04-30T08:13:48.723Z,97.30
2024-04-30T08:16:15.834Z,96.70
2024-04-30T08:18:43.285Z,97.00
2024-04-30T08:21:10.389Z,96.70
2024-04-30T08:23:37.472Z,95.90
2024-04-30T08:26:04.644Z,95.90
2024-04-30T08:28:31.788Z,96.10
2024-04-30T08:30:59.407Z,96.70
2024-04-30T08:33:26.861Z,96.10
2024-04-30T08:35:53.973Z,96.00
2024-04-30T08:38:21.078Z,95.70
2024-04-30T08:40:48.215Z,96.30
2024-04-30T08:43:15.422Z,96.50
2024-04-30T08:45:43.240Z,96.10
2024-04-30T08:48:12.210Z,95.90
2024-04-30T08:50:42.244Z,95.60
2024-04-30T08:53:09.821Z,95.50
2024-04-30T08:55:37.763Z,95.00
2024-04-30T08:58:04.958Z,94.40
2024-04-30T09:00:32.796Z,94.30
2024-04-30T09:03:02.942Z,94.30
2024-04-30T09:05:32.554Z,94.10
2024-04-30T09:08:00.480Z,94.40
2024-04-30T09:10:27.595Z,94.20
2024-04-30T09:13:00.917Z,93.40
2024-04-30T09:15:28.218Z,93.60
2024-04-30T09:18:05.430Z,93.20
2024-04-30T09:20:42.706Z,93.50
2024-04-30T09:23:09.882Z,93.80
2024-04-30T09:25:37.258Z,93.40
2024-04-30T09:28:14.254Z,92.90
2024-04-30T09:30:42.395Z,92.60
2024-04-30T09:33:10.654Z,93.00
2024-04-30T09:35:37.855Z,93.40
2024-04-30T09:38:08.655Z,92.80
2024-04-30T09:40:36.079Z,92.90
2024-04-30T09:43:03.376Z,92.50
2024-04-30T09:45:30.951Z,92.40
2024-04-30T09:47:58.162Z,92.20
2024-04-30T09:50:25.268Z,91.90
2024-04-30T09:52:53.474Z,92.10
2024-04-30T09:55:22.567Z,91.70
2024-04-30T09:57:49.930Z,91.30
2024-04-30T10:00:21.632Z,91.50
2024-04-30T10:02:53.752Z,90.90
2024-04-30T10:05:26.029Z,90.70
2024-04-30T10:07:54.378Z,90.40
2024-04-30T10:10:27.946Z,90.20
2024-04-30T10:12:55.511Z,90.10
2024-04-30T10:15:30.323Z,90.60
2024-04-30T10:17:57.482Z,90.30
2024-04-30T10:20:31.416Z,90.50
2024-04-30T10:22:58.941Z,90.40
2024-04-30T10:25:26.130Z,89.80
2024-04-30T10:28:06.859Z,89.20
2024-04-30T10:30:34.102Z,88.30
2024-04-30T10:33:01.559Z,89.90
2024-04-30T10:35:41.650Z,89.10
2024-04-30T10:38:09.231Z,85.60
2024-04-30T10:40:36.936Z,83.80
2024-04-30T10:43:04.166Z,84.30
2024-04-30T10:45:31.221Z,83.50
2024-04-30T10:47:58.606Z,83.10
2024-04-30T10:50:26.746Z,82.70
2024-04-30T10:52:54.415Z,84.00
2024-04-30T10:55:21.799Z,81.10
2024-04-30T10:57:49.426Z,83.50
2024-04-30T11:00:16.731Z,83.80
2024-04-30T11:02:47.258Z,82.70
2024-04-30T11:05:16.508Z,84.10
2024-04-30T11:07:59.043Z,82.30
2024-04-30T11:10:27.816Z,81.90
2024-04-30T11:12:58.508Z,80.50
2024-04-30T11:15:26.236Z,78.90
2024-04-30T11:17:53.692Z,80.20
2024-04-30T11:20:20.816Z,79.00
2024-04-30T11:22:48.342Z,80.60
2024-04-30T11:25:15.469Z,81.80
2024-04-30T11:27:42.582Z,78.10
2024-04-30T11:30:09.923Z,79.70
2024-04-30T11:32:37.085Z,81.40
2024-04-30T11:35:04.332Z,81.30
2024-04-30T11:37:31.517Z,80.20
2024-04-30T11:39:58.674Z,79.00
2024-04-30T11:42:31.197Z,78.90
2024-04-30T11:45:03.576Z,78.30
2024-04-30T11:47:30.854Z,78.80
2024-04-30T11:49:58.464Z,77.60
2024-04-30T11:52:25.589Z,77.00
2024-04-30T11:54:52.679Z,76.80
2024-04-30T11:57:19.772Z,76.20
2024-04-30T11:59:47.114Z,76.30
2024-04-30T12:02:14.412Z,77.80
2024-04-30T12:04:41.630Z,75.70
2024-04-30T12:07:08.958Z,76.70
2024-04-30T12:09:36.038Z,74.50
2024-04-30T12:12:03.143Z,73.20
2024-04-30T12:14:30.199Z,73.80
2024-04-30T12:16:57.363Z,73.40
2024-04-30T12:19:24.642Z,71.70
2024-04-30T12:21:51.723Z,68.60
2024-04-30T12:24:18.791Z,69.20
2024-04-30T12:26:45.833Z,68.60
2024-04-30T12:29:12.895Z,69.60
2024-04-30T12:31:43.023Z,66.70
2024-04-30T12:34:10.413Z,66.80
2024-04-30T12:36:38.737Z,65.50
2024-04-30T12:39:06.070Z,67.30
2024-04-30T12:41:39.520Z,68.40
2024-04-30T12:44:07.077Z,64.40
2024-04-30T12:46:34.157Z,64.50
2024-04-30T12:49:01.264Z,65.50
2024-04-30T12:51:28.331Z,65.50
2024-04-30T12:53:56.397Z,67.30
2024-04-30T12:56:23.785Z,66.90
2024-04-30T12:58:50.873Z,67.10
2024-04-30T13:01:20.611Z,68.90
2024-04-30T13:03:51.906Z,69.70
2024-04-30T13:06:19.150Z,68.20
2024-04-30T13:08:46.386Z,64.20
2024-04-30T13:11:13.952Z,64.90
2024-04-30T13:13:41.194Z,66.20
2024-04-30T13:16:08.414Z,65.70
2024-04-30T13:18:35.653Z,65.00
2024-04-30T13:21:02.739Z,63.60
2024-04-30T13:23:29.825Z,65.40
2024-04-30T13:25:56.889Z,65.60
2024-04-30T13:28:23.994Z,63.10
2024-04-30T13:30:51.095Z,64.10
2024-04-30T13:33:18.906Z,65.20
2024-04-30T13:35:46.096Z,64.40
2024-04-30T13:38:13.150Z,65.10
2024-04-30T13:40:40.306Z,63.80
2024-04-30T13:43:08.201Z,62.40
2024-04-30T13:45:35.292Z,62.50
2024-04-30T13:48:02.420Z,62.00
2024-04-30T13:50:29.567Z,63.40
2024-04-30T13:52:56.700Z,64.10
2024-04-30T13:55:23.871Z,63.90
2024-04-30T13:57:50.972Z,64.70
2024-04-30T14:00:18.114Z,64.80
2024-04-30T14:02:45.439Z,65.70
2024-04-30T14:05:12.554Z,62.90
2024-04-30T14:07:45.953Z,63.50
2024-04-30T14:10:13.232Z,65.70
2024-04-30T14:12:40.377Z,66.40
2024-04-30T14:15:07.503Z,65.50
2024-04-30T14:17:35.999Z,65.20
2024-04-30T14:20:03.834Z,65.60
2024-04-30T14:22:31.145Z,64.70
2024-04-30T14:24:58.212Z,65.10
2024-04-30T14:27:25.300Z,64.40
2024-04-30T14:29:52.763Z,63.80
2024-04-30T14:32:21.200Z,64.50
2024-04-30T14:34:48.360Z,64.00
2024-04-30T14:37:15.560Z,63.60
2024-04-30T14:39:43.312Z,63.50
2024-04-30T14:42:10.391Z,64.50
2024-04-30T14:44:37.436Z,63.10
2024-04-30T14:47:04.651Z,62.20
2024-04-30T14:49:31.827Z,61.70
2024-04-30T14:51:58.928Z,62.00
2024-04-30T14:54:26.124Z,62.00
2024-04-30T14:56:55.399Z,62.40
2024-04-30T14:59:23.332Z,61.80
2024-04-30T15:01:50.595Z,61.80
2024-04-30T15:04:17.781Z,62.40
2024-04-30T15:06:44.939Z,60.80
2024-04-30T15:09:12.035Z,61.70
2024-04-30T15:11:39.170Z,60.50
2024-04-30T15:14:06.305Z,62.20
2024-04-30T15:16:34.147Z,62.00
2024-04-30T15:19:02.357Z,61.60
2024-04-30T15:21:29.466Z,61.70
2024-04-30T15:23:56.559Z,61.40
2024-04-30T15:26:23.688Z,62.40
2024-04-30T15:28:50.908Z,61.50
2024-04-30T15:31:18.418Z,62.10
2024-04-30T15:33:45.920Z,61.20
2024-04-30T15:36:13.365Z,60.90
2024-04-30T15:38:40.898Z,61.60
2024-04-30T15:41:08.006Z,61.20
2024-04-30T15:43:36.446Z,61.50
2024-04-30T15:46:04.581Z,61.60
2024-04-30T15:48:32.016Z,61.70
2024-04-30T15:51:04.264Z,61.70
2024-04-30T15:53:31.529Z,61.70
2024-04-30T15:56:09.583Z,61.10
2024-04-30T15:58:45.053Z,60.60
2024-04-30T16:01:12.494Z,63.20
2024-04-30T16:03:39.814Z,60.70
2024-04-30T16:06:08.308Z,60.40
2024-04-30T16:08:36.467Z,60.70
2024-04-30T16:11:09.239Z,60.00
2024-04-30T16:13:38.676Z,59.60
2024-04-30T16:16:12.680Z,59.90
2024-04-30T16:18:45.678Z,60.60
2024-04-30T16:21:13.124Z,60.10
2024-04-30T16:23:40.225Z,61.10
2024-04-30T16:26:07.747Z,60.00
2024-04-30T16:28:35.381Z,60.80
2024-04-30T16:31:03.780Z,60.50
2024-04-30T16:33:31.095Z,61.50
2024-04-30T16:35:58.243Z,61.20
2024-04-30T16:38:25.334Z,61.10
2024-04-30T16:40:52.465Z,59.40
2024-04-30T16:43:19.541Z,61.60
2024-04-30T16:45:46.730Z,62.80
2024-04-30T16:48:13.997Z,62.30
2024-04-30T16:50:41.144Z,62.50
2024-04-30T16:53:09.666Z,63.50
2024-04-30T16:55:36.770Z,63.60
2024-04-30T16:58:05.601Z,62.60
2024-04-30T17:00:32.808Z,61.20
2024-04-30T17:03:00.211Z,60.20
2024-04-30T17:05:27.741Z,61.40
2024-04-30T17:07:54.835Z,63.60
2024-04-30T17:10:21.931Z,65.30
2024-04-30T17:12:49.133Z,64.90
2024-04-30T17:15:16.280Z,67.70
2024-04-30T17:17:43.422Z,64.40
2024-04-30T17:20:10.582Z,64.70
2024-04-30T17:22:37.680Z,70.10
2024-04-30T17:25:04.872Z,71.00
2024-04-30T17:27:31.963Z,64.80
2024-04-30T17:29:59.094Z,66.70
2024-04-30T17:32:26.394Z,70.90
2024-04-30T17:34:53.588Z,72.00
2024-04-30T17:37:21.761Z,71.70
2024-04-30T17:39:48.968Z,73.50
2024-04-30T17:42:16.376Z,75.10
2024-04-30T17:44:43.538Z,75.50
2024-04-30T17:47:10.728Z,76.40
2024-04-30T17:49:37.852Z,77.30
2024-04-30T17:52:05.197Z,77.10
2024-04-30T17:54:32.446Z,76.30
2024-04-30T17:56:59.562Z,76.90
2024-04-30T17:59:27.780Z,76.50
2024-04-30T18:01:54.862Z,77.10
2024-04-30T18:04:22.186Z,76.70
2024-04-30T18:06:49.724Z,76.90
2024-04-30T18:09:17.002Z,76.90
2024-04-30T18:11:44.233Z,76.50
2024-04-30T18:14:12.096Z,75.90
2024-04-30T18:16:39.813Z,75.30
2024-04-30T18:19:07.593Z,74.70
2024-04-30T18:21:36.885Z,75.80
2024-04-30T18:24:05.352Z,74.50
2024-04-30T18:26:37.561Z,74.80
2024-04-30T18:29:04.614Z,74.20
2024-04-30T18:31:31.725Z,75.60
2024-04-30T18:33:59.088Z,75.60
2024-04-30T18:36:26.628Z,76.10
2024-04-30T18:38:54.168Z,76.30
2024-04-30T18:41:28.261Z,76.10
2024-04-30T18:43:58.612Z,76.00
2024-04-30T18:46:25.729Z,76.60
2024-04-30T18:48:53.136Z,75.60
2024-04-30T18:51:20.923Z,75.70
2024-04-30T18:53:48.093Z,76.00
2024-04-30T18:56:17.732Z,75.60
2024-04-30T18:58:45.826Z,76.20
2024-04-30T19:01:13.560Z,76.20
2024-04-30T19:03:40.973Z,76.70
2024-04-30T19:06:08.440Z,76.30
2024-04-30T19:08:35.746Z,76.70
2024-04-30T19:11:04.159Z,77.30
2024-04-30T19:13:32.144Z,77.00
2024-04-30T19:16:02.829Z,77.00
2024-04-30T19:18:30.282Z,77.10
2024-04-30T19:20:58.004Z,76.30
2024-04-30T19:23:32.712Z,76.20
2024-04-30T19:26:00.662Z,78.10
2024-04-30T19:28:28.003Z,79.00
2024-04-30T19:30:55.104Z,78.70
2024-04-30T19:33:22.369Z,78.60
2024-04-30T19:35:49.621Z,79.10
2024-04-30T19:38:17.872Z,79.30
2024-04-30T19:40:45.692Z,78.50
2024-04-30T19:43:14.128Z,77.70
2024-04-30T19:45:41.649Z,77.90
2024-04-30T19:48:11.411Z,76.90
2024-04-30T19:50:40.139Z,76.80
2024-04-30T19:53:07.270Z,77.10
2024-04-30T19:55:34.473Z,78.10
2024-04-30T19:58:01.596Z,78.40
2024-04-30T20:00:28.845Z,78.50
2024-04-30T20:02:57.720Z,78.90
2024-04-30T20:05:24.841Z,79.30
2024-04-30T20:07:52.871Z,80.20
2024-04-30T20:10:20.030Z,80.30
2024-04-30T20:12:47.115Z,79.60
2024-04-30T20:15:14.223Z,79.10
2024-04-30T20:17:41.330Z,79.10
2024-04-30T20:20:08.614Z,80.20
2024-04-30T20:22:35.669Z,80.30
2024-04-30T20:25:02.877Z,81.10
2024-04-30T20:27:30.095Z,79.20
2024-04-30T20:29:57.151Z,79.80
2024-04-30T20:32:24.563Z,80.00
2024-04-30T20:34:51.708Z,80.10
2024-04-30T20:37:18.771Z,80.60
2024-04-30T20:39:45.880Z,81.20
2024-04-30T20:42:12.996Z,80.70
2024-04-30T20:44:40.083Z,81.20
2024-04-30T20:47:07.293Z,81.00
2024-04-30T20:49:34.433Z,81.30
2024-04-30T20:52:01.660Z,81.50
2024-04-30T20:54:29.058Z,80.70
2024-04-30T20:56:56.122Z,80.60
2024-04-30T20:59:23.187Z,81.30
2024-04-30T21:01:50.321Z,81.20
2024-04-30T21:04:17.560Z,81.60
2024-04-30T21:06:44.747Z,81.50
2024-04-30T21:09:14.648Z,80.70
2024-04-30T21:11:41.712Z,81.00
2024-04-30T21:14:09.346Z,79.90
2024-04-30T21:16:37.516Z,80.40
2024-04-30T21:19:04.775Z,80.60
2024-04-30T21:21:31.900Z,81.50
2024-04-30T21:23:58.958Z,82.10
2024-04-30T21:26:26.280Z,82.90
2024-04-30T21:28:53.347Z,82.70
2024-04-30T21:31:20.443Z,82.60
2024-04-30T21:33:47.619Z,82.30
2024-04-30T21:36:15.122Z,82.40
2024-04-30T21:38:42.176Z,83.20
2024-04-30T21:41:09.292Z,83.10
2024-04-30T21:43:36.385Z,82.70
2024-04-30T21:46:03.580Z,83.10
2024-04-30T21:48:30.790Z,82.20
2024-04-30T21:50:57.930Z,82.00
2024-04-30T21:53:25.066Z,82.60
2024-04-30T21:55:52.185Z,82.80
2024-04-30T21:58:19.250Z,82.50
2024-04-30T22:00:47.565Z,82.40
2024-04-30T22:03:14.813Z,82.50
2024-04-30T22:05:41.914Z,83.00
2024-04-30T22:08:08.971Z,83.70
2024-04-30T22:10:36.105Z,83.70
2024-04-30T22:13:03.591Z,83.70
2024-04-30T22:15:30.776Z,83.90
2024-04-30T22:17:57.927Z,84.10
2024-04-30T22:20:25.041Z,84.50
2024-04-30T22:22:52.095Z,84.40
2024-04-30T22:25:19.162Z,84.70
2024-04-30T22:27:46.296Z,85.10
2024-04-30T22:30:19.575Z,84.70
2024-04-30T22:32:48.162Z,83.90
2024-04-30T22:35:15.392Z,83.90
2024-04-30T22:37:42.471Z,83.40
2024-04-30T22:40:09.676Z,83.20
2024-04-30T22:42:36.969Z,83.20
2024-04-30T22:45:04.163Z,83.00
2024-04-30T22:47:31.344Z,83.20
2024-04-30T22:49:58.503Z,83.20
2024-04-30T22:52:25.572Z,83.30
2024-04-30T22:54:52.857Z,83.40
2024-04-30T22:57:20.058Z,83.80
2024-04-30T22:59:47.181Z,84.10
